sensor_id;sensor_type;location;lat;lon;timestamp;P1;durP1;ratioP1;P2;durP2;ratioP2
1136;SDS011;557;48.466;7.950;2024-03-22T00:00:22;9.10;;;7.77;;
1136;SDS011;557;48.466;7.950;2024-03-22T00:02:49;9.57;;;7.00;;
1136;SDS011;557;48.466;7.950;2024-03-22T00:05:15;7.63;;;6.93;;
1136;SDS011;557;48.466;7.950;2024-03-22T00:07:42;7.47;;;6.77;;
1136;SDS011;557;48.466;7.950;2024-03-22T00:10:08;8.43;;;7.20;;
1136;SDS011;557;48.466;7.950;2024-03-22T00:12:36;13.10;;;7.50;;
1136;SDS011;557;48.466;7.950;2024-03-22T00:15:03;8.60;;;7.80;;
1136;SDS011;557;48.466;7.950;2024-03-22T00:17:30;8.67;;;7.27;;
1136;SDS011;557;48.466;7.950;2024-03-22T00:19:56;11.10;;;8.20;;
1136;SDS011;557;48.466;7.950;2024-03-22T00:22:23;9.70;;;7.30;;
1136;SDS011;557;48.466;7.950;2024-03-22T00:24:49;8.47;;;7.37;;
1136;SDS011;557;48.466;7.950;2024-03-22T00:27:16;7.80;;;7.00;;
1136;SDS011;557;48.466;7.950;2024-03-22T00:29:43;8.70;;;7.80;;
1136;SDS011;557;48.466;7.950;2024-03-22T00:32:10;8.87;;;7.20;;
1136;SDS011;557;48.466;7.950;2024-03-22T00:34:36;8.13;;;7.30;;
1136;SDS011;557;48.466;7.950;2024-03-22T00:37:03;8.67;;;7.33;;
1136;SDS011;557;48.466;7.950;2024-03-22T00:39:29;7.97;;;7.27;;
1136;SDS011;557;48.466;7.950;2024-03-22T00:41:56;7.93;;;7.17;;
1136;SDS011;557;48.466;7.950;2024-03-22T00:44:22;9.83;;;6.97;;
1136;SDS011;557;48.466;7.950;2024-03-22T00:46:50;8.43;;;7.10;;
1136;SDS011;557;48.466;7.950;2024-03-22T00:49:16;7.80;;;7.00;;
1136;SDS011;557;48.466;7.950;2024-03-22T00:51:42;7.93;;;7.13;;
1136;SDS011;557;48.466;7.950;2024-03-22T00:54:10;9.20;;;7.33;;
1136;SDS011;557;48.466;7.950;2024-03-22T00:56:36;8.10;;;7.30;;
1136;SDS011;557;48.466;7.950;2024-03-22T00:59:03;9.00;;;7.80;;
1136;SDS011;557;48.466;7.950;2024-03-22T01:01:29;7.20;;;6.50;;
1136;SDS011;557;48.466;7.950;2024-03-22T01:03:58;7.40;;;6.70;;
1136;SDS011;557;48.466;7.950;2024-03-22T01:06:23;9.07;;;7.93;;
1136;SDS011;557;48.466;7.950;2024-03-22T01:08:52;12.00;;;6.93;;
1136;SDS011;557;48.466;7.950;2024-03-22T01:11:18;7.20;;;6.50;;
1136;SDS011;557;48.466;7.950;2024-03-22T01:13:45;8.03;;;7.23;;
1136;SDS011;557;48.466;7.950;2024-03-22T01:16:12;8.07;;;7.27;;
1136;SDS011;557;48.466;7.950;2024-03-22T01:18:38;7.50;;;6.73;;
1136;SDS011;557;48.466;7.950;2024-03-22T01:21:06;8.53;;;6.43;;
1136;SDS011;557;48.466;7.950;2024-03-22T01:23:32;8.63;;;7.20;;
1136;SDS011;557;48.466;7.950;2024-03-22T01:25:58;8.17;;;7.33;;
1136;SDS011;557;48.466;7.950;2024-03-22T01:28:25;8.70;;;7.60;;
1136;SDS011;557;48.466;7.950;2024-03-22T01:30:51;9.17;;;7.10;;
1136;SDS011;557;48.466;7.950;2024-03-22T01:33:18;10.00;;;7.50;;
1136;SDS011;557;48.466;7.950;2024-03-22T01:35:44;7.83;;;6.90;;
1136;SDS011;557;48.466;7.950;2024-03-22T01:38:12;8.60;;;7.63;;
1136;SDS011;557;48.466;7.950;2024-03-22T01:40:38;8.47;;;7.50;;
1136;SDS011;557;48.466;7.950;2024-03-22T01:43:04;7.57;;;6.80;;
1136;SDS011;557;48.466;7.950;2024-03-22T01:45:31;8.20;;;7.20;;
1136;SDS011;557;48.466;7.950;2024-03-22T01:47:59;7.70;;;6.90;;
1136;SDS011;557;48.466;7.950;2024-03-22T01:50:26;10.13;;;7.20;;
1136;SDS011;557;48.466;7.950;2024-03-22T01:52:54;11.60;;;7.13;;
1136;SDS011;557;48.466;7.950;2024-03-22T01:55:21;9.27;;;6.60;;
1136;SDS011;557;48.466;7.950;2024-03-22T01:57:49;10.47;;;7.53;;
1136;SDS011;557;48.466;7.950;2024-03-22T02:00:18;8.50;;;7.10;;
1136;SDS011;557;48.466;7.950;2024-03-22T02:02:45;8.20;;;7.10;;
1136;SDS011;557;48.466;7.950;2024-03-22T02:05:12;7.50;;;6.80;;
1136;SDS011;557;48.466;7.950;2024-03-22T02:07:40;9.00;;;7.30;;
1136;SDS011;557;48.466;7.950;2024-03-22T02:10:06;8.27;;;6.97;;
1136;SDS011;557;48.466;7.950;2024-03-22T02:12:37;8.00;;;7.20;;
1136;SDS011;557;48.466;7.950;2024-03-22T02:15:03;8.03;;;6.47;;
1136;SDS011;557;48.466;7.950;2024-03-22T02:17:31;8.80;;;7.40;;
1136;SDS011;557;48.466;7.950;2024-03-22T02:19:58;7.87;;;7.07;;
1136;SDS011;557;48.466;7.950;2024-03-22T02:22:25;7.47;;;6.77;;
1136;SDS011;557;48.466;7.950;2024-03-22T02:24:53;8.00;;;7.00;;
1136;SDS011;557;48.466;7.950;2024-03-22T02:27:20;7.60;;;6.70;;
1136;SDS011;557;48.466;7.950;2024-03-22T02:29:46;8.90;;;6.47;;
1136;SDS011;557;48.466;7.950;2024-03-22T02:32:12;7.93;;;6.50;;
1136;SDS011;557;48.466;7.950;2024-03-22T02:34:38;7.13;;;6.43;;
1136;SDS011;557;48.466;7.950;2024-03-22T02:37:05;8.30;;;7.13;;
1136;SDS011;557;48.466;7.950;2024-03-22T02:39:31;8.90;;;6.90;;
1136;SDS011;557;48.466;7.950;2024-03-22T02:41:59;12.10;;;6.90;;
1136;SDS011;557;48.466;7.950;2024-03-22T02:44:25;8.47;;;7.23;;
1136;SDS011;557;48.466;7.950;2024-03-22T02:46:52;7.63;;;6.83;;
1136;SDS011;557;48.466;7.950;2024-03-22T02:49:17;8.30;;;6.67;;
1136;SDS011;557;48.466;7.950;2024-03-22T02:51:44;9.23;;;6.97;;
1136;SDS011;557;48.466;7.950;2024-03-22T02:54:10;8.17;;;6.97;;
1136;SDS011;557;48.466;7.950;2024-03-22T02:56:37;8.70;;;7.30;;
1136;SDS011;557;48.466;7.950;2024-03-22T02:59:04;13.20;;;7.33;;
1136;SDS011;557;48.466;7.950;2024-03-22T03:01:31;7.60;;;6.80;;
1136;SDS011;557;48.466;7.950;2024-03-22T03:03:57;6.90;;;6.30;;
1136;SDS011;557;48.466;7.950;2024-03-22T03:06:24;7.97;;;7.17;;
1136;SDS011;557;48.466;7.950;2024-03-22T03:08:50;10.50;;;7.73;;
1136;SDS011;557;48.466;7.950;2024-03-22T03:11:16;8.63;;;6.70;;
1136;SDS011;557;48.466;7.950;2024-03-22T03:13:42;6.93;;;6.23;;
1136;SDS011;557;48.466;7.950;2024-03-22T03:16:11;7.90;;;7.10;;
1136;SDS011;557;48.466;7.950;2024-03-22T03:18:36;7.47;;;6.73;;
1136;SDS011;557;48.466;7.950;2024-03-22T03:21:03;7.53;;;6.30;;
1136;SDS011;557;48.466;7.950;2024-03-22T03:23:29;10.20;;;7.23;;
1136;SDS011;557;48.466;7.950;2024-03-22T03:25:56;7.60;;;6.87;;
1136;SDS011;557;48.466;7.950;2024-03-22T03:28:22;7.50;;;6.70;;
1136;SDS011;557;48.466;7.950;2024-03-22T03:30:51;7.70;;;6.77;;
1136;SDS011;557;48.466;7.950;2024-03-22T03:33:18;8.37;;;7.50;;
1136;SDS011;557;48.466;7.950;2024-03-22T03:35:45;9.00;;;7.00;;
1136;SDS011;557;48.466;7.950;2024-03-22T03:38:11;8.00;;;6.33;;
1136;SDS011;557;48.466;7.950;2024-03-22T03:40:38;7.60;;;6.80;;
1136;SDS011;557;48.466;7.950;2024-03-22T03:43:04;10.50;;;6.50;;
1136;SDS011;557;48.466;7.950;2024-03-22T03:45:31;7.00;;;6.30;;
1136;SDS011;557;48.466;7.950;2024-03-22T03:47:56;8.43;;;7.57;;
1136;SDS011;557;48.466;7.950;2024-03-22T03:50:25;9.20;;;6.77;;
1136;SDS011;557;48.466;7.950;2024-03-22T03:52:50;9.60;;;7.37;;
1136;SDS011;557;48.466;7.950;2024-03-22T03:55:17;10.17;;;6.70;;
1136;SDS011;557;48.466;7.950;2024-03-22T03:57:43;7.90;;;7.10;;
1136;SDS011;557;48.466;7.950;2024-03-22T04:00:10;7.80;;;6.67;;
1136;SDS011;557;48.466;7.950;2024-03-22T04:02:37;8.80;;;7.53;;
1136;SDS011;557;48.466;7.950;2024-03-22T04:05:04;7.00;;;6.40;;
1136;SDS011;557;48.466;7.950;2024-03-22T04:07:31;10.50;;;7.33;;
1136;SDS011;557;48.466;7.950;2024-03-22T04:09:58;7.60;;;6.63;;
1136;SDS011;557;48.466;7.950;2024-03-22T04:12:25;8.03;;;7.00;;
1136;SDS011;557;48.466;7.950;2024-03-22T04:14:52;8.43;;;7.50;;
1136;SDS011;557;48.466;7.950;2024-03-22T04:17:18;8.63;;;6.90;;
1136;SDS011;557;48.466;7.950;2024-03-22T04:19:45;7.47;;;6.77;;
1136;SDS011;557;48.466;7.950;2024-03-22T04:22:11;7.70;;;6.20;;
1136;SDS011;557;48.466;7.950;2024-03-22T04:24:39;10.50;;;7.70;;
1136;SDS011;557;48.466;7.950;2024-03-22T04:27:05;7.67;;;6.60;;
1136;SDS011;557;48.466;7.950;2024-03-22T04:29:32;8.43;;;7.37;;
1136;SDS011;557;48.466;7.950;2024-03-22T04:31:58;8.00;;;7.20;;
1136;SDS011;557;48.466;7.950;2024-03-22T04:34:25;7.90;;;6.80;;
1136;SDS011;557;48.466;7.950;2024-03-22T04:36:51;8.57;;;7.27;;
1136;SDS011;557;48.466;7.950;2024-03-22T04:39:18;8.40;;;7.60;;
1136;SDS011;557;48.466;7.950;2024-03-22T04:41:46;7.23;;;6.53;;
1136;SDS011;557;48.466;7.950;2024-03-22T04:44:12;8.50;;;7.43;;
1136;SDS011;557;48.466;7.950;2024-03-22T04:46:38;8.20;;;6.40;;
1136;SDS011;557;48.466;7.950;2024-03-22T04:49:05;7.77;;;6.90;;
1136;SDS011;557;48.466;7.950;2024-03-22T04:51:31;8.80;;;7.43;;
1136;SDS011;557;48.466;7.950;2024-03-22T04:53:58;8.17;;;7.33;;
1136;SDS011;557;48.466;7.950;2024-03-22T04:56:24;9.60;;;7.20;;
1136;SDS011;557;48.466;7.950;2024-03-22T04:58:52;8.90;;;7.00;;
1136;SDS011;557;48.466;7.950;2024-03-22T05:01:19;7.63;;;6.70;;
1136;SDS011;557;48.466;7.950;2024-03-22T05:03:48;8.87;;;6.77;;
1136;SDS011;557;48.466;7.950;2024-03-22T05:06:14;7.00;;;6.30;;
1136;SDS011;557;48.466;7.950;2024-03-22T05:08:41;7.80;;;6.80;;
1136;SDS011;557;48.466;7.950;2024-03-22T05:11:07;7.10;;;6.10;;
1136;SDS011;557;48.466;7.950;2024-03-22T05:13:34;8.87;;;7.40;;
1136;SDS011;557;48.466;7.950;2024-03-22T05:16:01;11.30;;;7.40;;
1136;SDS011;557;48.466;7.950;2024-03-22T05:18:28;7.67;;;6.87;;
1136;SDS011;557;48.466;7.950;2024-03-22T05:20:54;10.13;;;7.27;;
1136;SDS011;557;48.466;7.950;2024-03-22T05:23:21;10.53;;;7.53;;
1136;SDS011;557;48.466;7.950;2024-03-22T05:25:47;10.87;;;6.87;;
1136;SDS011;557;48.466;7.950;2024-03-22T05:28:14;8.63;;;6.40;;
1136;SDS011;557;48.466;7.950;2024-03-22T05:30:40;9.47;;;6.80;;
1136;SDS011;557;48.466;7.950;2024-03-22T05:33:08;8.53;;;6.60;;
1136;SDS011;557;48.466;7.950;2024-03-22T05:35:34;9.47;;;6.70;;
1136;SDS011;557;48.466;7.950;2024-03-22T05:38:00;6.93;;;5.80;;
1136;SDS011;557;48.466;7.950;2024-03-22T05:40:26;8.77;;;7.47;;
1136;SDS011;557;48.466;7.950;2024-03-22T05:42:53;7.37;;;6.17;;
1136;SDS011;557;48.466;7.950;2024-03-22T05:45:19;9.90;;;6.83;;
1136;SDS011;557;48.466;7.950;2024-03-22T05:47:46;10.13;;;6.63;;
1136;SDS011;557;48.466;7.950;2024-03-22T05:50:13;10.53;;;7.20;;
1136;SDS011;557;48.466;7.950;2024-03-22T05:52:40;11.73;;;7.10;;
1136;SDS011;557;48.466;7.950;2024-03-22T05:55:06;8.47;;;6.83;;
1136;SDS011;557;48.466;7.950;2024-03-22T05:57:33;11.00;;;6.70;;
1136;SDS011;557;48.466;7.950;2024-03-22T05:59:59;8.87;;;7.00;;
1136;SDS011;557;48.466;7.950;2024-03-22T06:02:25;10.43;;;6.83;;
1136;SDS011;557;48.466;7.950;2024-03-22T06:04:52;7.83;;;7.00;;
1136;SDS011;557;48.466;7.950;2024-03-22T06:07:20;9.40;;;6.67;;
1136;SDS011;557;48.466;7.950;2024-03-22T06:09:46;10.73;;;6.73;;
1136;SDS011;557;48.466;7.950;2024-03-22T06:12:12;9.27;;;6.87;;
1136;SDS011;557;48.466;7.950;2024-03-22T06:14:40;8.30;;;5.67;;
1136;SDS011;557;48.466;7.950;2024-03-22T06:17:06;9.53;;;6.80;;
1136;SDS011;557;48.466;7.950;2024-03-22T06:19:33;8.77;;;6.23;;
1136;SDS011;557;48.466;7.950;2024-03-22T06:21:58;8.70;;;6.90;;
1136;SDS011;557;48.466;7.950;2024-03-22T06:24:27;11.20;;;7.37;;
1136;SDS011;557;48.466;7.950;2024-03-22T06:26:53;10.87;;;8.17;;
1136;SDS011;557;48.466;7.950;2024-03-22T06:29:19;9.83;;;7.03;;
1136;SDS011;557;48.466;7.950;2024-03-22T06:31:45;6.97;;;6.37;;
1136;SDS011;557;48.466;7.950;2024-03-22T06:34:13;7.33;;;6.63;;
1136;SDS011;557;48.466;7.950;2024-03-22T06:36:38;9.67;;;6.70;;
1136;SDS011;557;48.466;7.950;2024-03-22T06:39:05;7.73;;;6.93;;
1136;SDS011;557;48.466;7.950;2024-03-22T06:41:34;7.70;;;6.90;;
1136;SDS011;557;48.466;7.950;2024-03-22T06:44:01;8.60;;;6.43;;
1136;SDS011;557;48.466;7.950;2024-03-22T06:46:27;9.73;;;7.10;;
1136;SDS011;557;48.466;7.950;2024-03-22T06:48:54;7.07;;;6.37;;
1136;SDS011;557;48.466;7.950;2024-03-22T06:51:20;8.10;;;6.37;;
1136;SDS011;557;48.466;7.950;2024-03-22T06:53:46;7.80;;;7.00;;
1136;SDS011;557;48.466;7.950;2024-03-22T06:56:13;10.10;;;8.13;;
1136;SDS011;557;48.466;7.950;2024-03-22T06:58:41;7.77;;;6.80;;
1136;SDS011;557;48.466;7.950;2024-03-22T07:01:07;9.23;;;7.37;;
1136;SDS011;557;48.466;7.950;2024-03-22T07:03:34;8.97;;;7.43;;
1136;SDS011;557;48.466;7.950;2024-03-22T07:06:00;8.63;;;6.33;;
1136;SDS011;557;48.466;7.950;2024-03-22T07:08:26;11.60;;;7.50;;
1136;SDS011;557;48.466;7.950;2024-03-22T07:10:53;10.93;;;7.07;;
1136;SDS011;557;48.466;7.950;2024-03-22T07:13:20;8.23;;;7.27;;
1136;SDS011;557;48.466;7.950;2024-03-22T07:15:47;9.03;;;6.93;;
1136;SDS011;557;48.466;7.950;2024-03-22T07:18:14;9.97;;;7.53;;
1136;SDS011;557;48.466;7.950;2024-03-22T07:20:40;11.40;;;8.53;;
1136;SDS011;557;48.466;7.950;2024-03-22T07:23:07;9.07;;;7.50;;
1136;SDS011;557;48.466;7.950;2024-03-22T07:25:33;8.30;;;7.50;;
1136;SDS011;557;48.466;7.950;2024-03-22T07:28:00;9.13;;;7.20;;
1136;SDS011;557;48.466;7.950;2024-03-22T07:30:26;8.80;;;7.90;;
1136;SDS011;557;48.466;7.950;2024-03-22T07:32:54;7.47;;;6.70;;
1136;SDS011;557;48.466;7.950;2024-03-22T07:35:20;8.63;;;7.83;;
1136;SDS011;557;48.466;7.950;2024-03-22T07:37:47;7.97;;;7.17;;
1136;SDS011;557;48.466;7.950;2024-03-22T07:40:13;8.30;;;7.50;;
1136;SDS011;557;48.466;7.950;2024-03-22T07:42:40;7.77;;;6.97;;
1136;SDS011;557;48.466;7.950;2024-03-22T07:45:07;8.80;;;7.30;;
1136;SDS011;557;48.466;7.950;2024-03-22T07:47:35;7.63;;;6.60;;
1136;SDS011;557;48.466;7.950;2024-03-22T07:50:04;8.07;;;7.27;;
1136;SDS011;557;48.466;7.950;2024-03-22T07:52:32;7.70;;;6.73;;
1136;SDS011;557;48.466;7.950;2024-03-22T07:54:58;8.20;;;7.27;;
1136;SDS011;557;48.466;7.950;2024-03-22T07:57:27;7.83;;;7.03;;
1136;SDS011;557;48.466;7.950;2024-03-22T07:59:53;8.67;;;7.43;;
1136;SDS011;557;48.466;7.950;2024-03-22T08:02:20;10.50;;;7.87;;
1136;SDS011;557;48.466;7.950;2024-03-22T08:04:45;8.30;;;7.10;;
1136;SDS011;557;48.466;7.950;2024-03-22T08:07:14;8.80;;;7.90;;
1136;SDS011;557;48.466;7.950;2024-03-22T08:09:40;9.07;;;8.20;;
1136;SDS011;557;48.466;7.950;2024-03-22T08:12:07;8.60;;;7.80;;
1136;SDS011;557;48.466;7.950;2024-03-22T08:14:33;8.70;;;7.90;;
1136;SDS011;557;48.466;7.950;2024-03-22T08:16:59;8.27;;;7.47;;
1136;SDS011;557;48.466;7.950;2024-03-22T08:19:25;9.30;;;7.53;;
1136;SDS011;557;48.466;7.950;2024-03-22T08:21:53;9.07;;;8.10;;
1136;SDS011;557;48.466;7.950;2024-03-22T08:24:20;9.00;;;8.10;;
1136;SDS011;557;48.466;7.950;2024-03-22T08:26:47;12.13;;;7.90;;
1136;SDS011;557;48.466;7.950;2024-03-22T08:29:13;9.53;;;8.63;;
1136;SDS011;557;48.466;7.950;2024-03-22T08:31:40;9.57;;;8.67;;
1136;SDS011;557;48.466;7.950;2024-03-22T08:34:06;9.87;;;8.97;;
1136;SDS011;557;48.466;7.950;2024-03-22T08:36:33;9.47;;;8.50;;
1136;SDS011;557;48.466;7.950;2024-03-22T08:38:59;10.10;;;9.20;;
1136;SDS011;557;48.466;7.950;2024-03-22T08:41:27;9.90;;;9.00;;
1136;SDS011;557;48.466;7.950;2024-03-22T08:43:53;11.27;;;10.10;;
1136;SDS011;557;48.466;7.950;2024-03-22T08:46:20;11.03;;;10.07;;
1136;SDS011;557;48.466;7.950;2024-03-22T08:48:46;11.00;;;10.10;;
1136;SDS011;557;48.466;7.950;2024-03-22T08:51:13;11.27;;;10.43;;
1136;SDS011;557;48.466;7.950;2024-03-22T08:53:41;11.67;;;10.83;;
1136;SDS011;557;48.466;7.950;2024-03-22T08:56:07;12.40;;;11.40;;
1136;SDS011;557;48.466;7.950;2024-03-22T08:58:35;12.20;;;11.20;;
1136;SDS011;557;48.466;7.950;2024-03-22T09:01:02;12.53;;;11.43;;
1136;SDS011;557;48.466;7.950;2024-03-22T09:03:28;12.53;;;11.63;;
1136;SDS011;557;48.466;7.950;2024-03-22T09:05:55;12.93;;;11.87;;
1136;SDS011;557;48.466;7.950;2024-03-22T09:08:21;11.90;;;10.70;;
1136;SDS011;557;48.466;7.950;2024-03-22T09:10:48;13.10;;;12.00;;
1136;SDS011;557;48.466;7.950;2024-03-22T09:13:14;12.60;;;11.60;;
1136;SDS011;557;48.466;7.950;2024-03-22T09:15:42;14.50;;;13.30;;
1136;SDS011;557;48.466;7.950;2024-03-22T09:18:08;14.27;;;12.97;;
1136;SDS011;557;48.466;7.950;2024-03-22T09:20:35;14.57;;;13.47;;
1136;SDS011;557;48.466;7.950;2024-03-22T09:23:01;14.50;;;13.50;;
1136;SDS011;557;48.466;7.950;2024-03-22T09:25:29;15.30;;;14.00;;
1136;SDS011;557;48.466;7.950;2024-03-22T09:27:55;14.67;;;13.57;;
1136;SDS011;557;48.466;7.950;2024-03-22T09:30:21;14.60;;;13.47;;
1136;SDS011;557;48.466;7.950;2024-03-22T09:32:49;15.50;;;14.10;;
1136;SDS011;557;48.466;7.950;2024-03-22T09:35:18;15.30;;;14.17;;
1136;SDS011;557;48.466;7.950;2024-03-22T09:37:45;15.77;;;14.67;;
1136;SDS011;557;48.466;7.950;2024-03-22T09:40:12;15.53;;;14.10;;
1136;SDS011;557;48.466;7.950;2024-03-22T09:42:38;14.10;;;13.20;;
1136;SDS011;557;48.466;7.950;2024-03-22T09:45:08;15.20;;;14.20;;
1136;SDS011;557;48.466;7.950;2024-03-22T09:47:35;14.83;;;13.63;;
1136;SDS011;557;48.466;7.950;2024-03-22T09:50:04;15.97;;;14.87;;
1136;SDS011;557;48.466;7.950;2024-03-22T09:52:32;15.30;;;14.30;;
1136;SDS011;557;48.466;7.950;2024-03-22T09:54:59;17.33;;;15.87;;
1136;SDS011;557;48.466;7.950;2024-03-22T09:57:28;16.33;;;15.03;;
1136;SDS011;557;48.466;7.950;2024-03-22T09:59:57;16.23;;;14.93;;
1136;SDS011;557;48.466;7.950;2024-03-22T10:02:23;15.73;;;14.83;;
1136;SDS011;557;48.466;7.950;2024-03-22T10:04:51;17.30;;;15.87;;
1136;SDS011;557;48.466;7.950;2024-03-22T10:07:18;17.10;;;15.53;;
1136;SDS011;557;48.466;7.950;2024-03-22T10:09:45;16.73;;;15.47;;
1136;SDS011;557;48.466;7.950;2024-03-22T10:12:11;17.10;;;15.67;;
1136;SDS011;557;48.466;7.950;2024-03-22T10:14:38;15.30;;;14.30;;
1136;SDS011;557;48.466;7.950;2024-03-22T10:17:08;15.27;;;14.30;;
1136;SDS011;557;48.466;7.950;2024-03-22T10:19:34;16.30;;;14.77;;
1136;SDS011;557;48.466;7.950;2024-03-22T10:22:01;15.53;;;14.50;;
1136;SDS011;557;48.466;7.950;2024-03-22T10:24:30;14.17;;;13.17;;
1136;SDS011;557;48.466;7.950;2024-03-22T10:26:58;15.77;;;14.30;;
1136;SDS011;557;48.466;7.950;2024-03-22T10:29:25;15.47;;;14.40;;
1136;SDS011;557;48.466;7.950;2024-03-22T10:31:51;14.70;;;13.97;;
1136;SDS011;557;48.466;7.950;2024-03-22T10:34:18;15.03;;;14.17;;
1136;SDS011;557;48.466;7.950;2024-03-22T10:36:46;16.00;;;14.90;;
1136;SDS011;557;48.466;7.950;2024-03-22T10:39:15;15.20;;;14.30;;
1136;SDS011;557;48.466;7.950;2024-03-22T10:41:44;15.50;;;14.47;;
1136;SDS011;557;48.466;7.950;2024-03-22T10:44:11;15.23;;;14.30;;
1136;SDS011;557;48.466;7.950;2024-03-22T10:46:37;15.10;;;14.07;;
1136;SDS011;557;48.466;7.950;2024-03-22T10:49:09;15.67;;;14.67;;
1136;SDS011;557;48.466;7.950;2024-03-22T10:51:38;15.33;;;14.43;;
1136;SDS011;557;48.466;7.950;2024-03-22T10:54:07;16.20;;;14.90;;
1136;SDS011;557;48.466;7.950;2024-03-22T10:56:34;15.60;;;14.80;;
1136;SDS011;557;48.466;7.950;2024-03-22T10:59:04;14.97;;;14.10;;
1136;SDS011;557;48.466;7.950;2024-03-22T11:01:31;15.57;;;14.67;;
1136;SDS011;557;48.466;7.950;2024-03-22T11:04:05;15.53;;;14.57;;
1136;SDS011;557;48.466;7.950;2024-03-22T11:06:31;15.33;;;14.43;;
1136;SDS011;557;48.466;7.950;2024-03-22T11:08:59;14.73;;;13.73;;
1136;SDS011;557;48.466;7.950;2024-03-22T11:11:25;15.00;;;14.10;;
1136;SDS011;557;48.466;7.950;2024-03-22T11:13:56;14.83;;;13.90;;
1136;SDS011;557;48.466;7.950;2024-03-22T11:16:24;15.47;;;14.60;;
1136;SDS011;557;48.466;7.950;2024-03-22T11:18:51;14.50;;;13.60;;
1136;SDS011;557;48.466;7.950;2024-03-22T11:21:17;14.40;;;13.60;;
1136;SDS011;557;48.466;7.950;2024-03-22T11:23:44;15.00;;;14.10;;
1136;SDS011;557;48.466;7.950;2024-03-22T11:26:13;15.07;;;14.20;;
1136;SDS011;557;48.466;7.950;2024-03-22T11:28:43;14.70;;;14.00;;
1136;SDS011;557;48.466;7.950;2024-03-22T11:31:09;14.30;;;13.60;;
1136;SDS011;557;48.466;7.950;2024-03-22T11:33:37;15.10;;;14.30;;
1136;SDS011;557;48.466;7.950;2024-03-22T11:36:05;15.23;;;14.33;;
1136;SDS011;557;48.466;7.950;2024-03-22T11:38:32;15.83;;;15.00;;
1136;SDS011;557;48.466;7.950;2024-03-22T11:40:58;15.60;;;14.80;;
1136;SDS011;557;48.466;7.950;2024-03-22T11:43:26;16.20;;;15.40;;
1136;SDS011;557;48.466;7.950;2024-03-22T11:45:54;15.20;;;14.50;;
1136;SDS011;557;48.466;7.950;2024-03-22T11:48:20;17.33;;;16.23;;
1136;SDS011;557;48.466;7.950;2024-03-22T11:50:49;17.00;;;16.10;;
1136;SDS011;557;48.466;7.950;2024-03-22T11:53:15;16.40;;;15.60;;
1136;SDS011;557;48.466;7.950;2024-03-22T11:55:42;16.80;;;16.00;;
1136;SDS011;557;48.466;7.950;2024-03-22T11:58:08;16.90;;;16.00;;
1136;SDS011;557;48.466;7.950;2024-03-22T12:00:35;16.10;;;15.30;;
1136;SDS011;557;48.466;7.950;2024-03-22T12:03:03;15.80;;;15.00;;
1136;SDS011;557;48.466;7.950;2024-03-22T12:05:31;16.13;;;15.33;;
1136;SDS011;557;48.466;7.950;2024-03-22T12:07:58;17.20;;;16.10;;
1136;SDS011;557;48.466;7.950;2024-03-22T12:10:25;16.60;;;15.70;;
1136;SDS011;557;48.466;7.950;2024-03-22T12:12:51;17.20;;;16.00;;
1136;SDS011;557;48.466;7.950;2024-03-22T12:15:19;16.60;;;15.80;;
1136;SDS011;557;48.466;7.950;2024-03-22T12:17:45;17.10;;;15.90;;
1136;SDS011;557;48.466;7.950;2024-03-22T12:20:11;16.37;;;15.57;;
1136;SDS011;557;48.466;7.950;2024-03-22T12:22:40;15.60;;;14.80;;
1136;SDS011;557;48.466;7.950;2024-03-22T12:25:08;15.60;;;14.80;;
1136;SDS011;557;48.466;7.950;2024-03-22T12:27:36;16.13;;;15.20;;
1136;SDS011;557;48.466;7.950;2024-03-22T12:30:03;15.90;;;15.10;;
1136;SDS011;557;48.466;7.950;2024-03-22T12:32:31;17.03;;;16.03;;
1136;SDS011;557;48.466;7.950;2024-03-22T12:34:58;16.50;;;15.57;;
1136;SDS011;557;48.466;7.950;2024-03-22T12:37:24;16.43;;;15.63;;
1136;SDS011;557;48.466;7.950;2024-03-22T12:39:51;17.50;;;16.50;;
1136;SDS011;557;48.466;7.950;2024-03-22T12:42:18;16.63;;;15.83;;
1136;SDS011;557;48.466;7.950;2024-03-22T12:44:45;16.47;;;15.67;;
1136;SDS011;557;48.466;7.950;2024-03-22T12:47:11;16.50;;;15.70;;
1136;SDS011;557;48.466;7.950;2024-03-22T12:49:38;16.37;;;15.47;;
1136;SDS011;557;48.466;7.950;2024-03-22T12:52:04;16.43;;;15.63;;
1136;SDS011;557;48.466;7.950;2024-03-22T12:54:31;16.40;;;15.60;;
1136;SDS011;557;48.466;7.950;2024-03-22T12:56:57;17.10;;;16.13;;
1136;SDS011;557;48.466;7.950;2024-03-22T12:59:25;16.50;;;15.70;;
1136;SDS011;557;48.466;7.950;2024-03-22T13:01:51;16.07;;;15.37;;
1136;SDS011;557;48.466;7.950;2024-03-22T13:04:18;16.03;;;15.03;;
1136;SDS011;557;48.466;7.950;2024-03-22T13:06:44;16.30;;;15.43;;
1136;SDS011;557;48.466;7.950;2024-03-22T13:09:11;16.20;;;15.40;;
1136;SDS011;557;48.466;7.950;2024-03-22T13:11:38;16.77;;;15.97;;
1136;SDS011;557;48.466;7.950;2024-03-22T13:14:06;17.07;;;15.97;;
1136;SDS011;557;48.466;7.950;2024-03-22T13:16:33;16.63;;;15.57;;
1136;SDS011;557;48.466;7.950;2024-03-22T13:19:00;16.40;;;15.40;;
1136;SDS011;557;48.466;7.950;2024-03-22T13:21:25;16.90;;;16.00;;
1136;SDS011;557;48.466;7.950;2024-03-22T13:23:53;16.10;;;15.30;;
1136;SDS011;557;48.466;7.950;2024-03-22T13:26:19;16.70;;;15.50;;
1136;SDS011;557;48.466;7.950;2024-03-22T13:28:45;15.87;;;15.07;;
1136;SDS011;557;48.466;7.950;2024-03-22T13:31:11;17.47;;;16.27;;
1136;SDS011;557;48.466;7.950;2024-03-22T13:33:39;15.93;;;15.03;;
1136;SDS011;557;48.466;7.950;2024-03-22T13:36:05;16.60;;;15.50;;
1136;SDS011;557;48.466;7.950;2024-03-22T13:38:32;15.50;;;14.80;;
1136;SDS011;557;48.466;7.950;2024-03-22T13:40:58;15.33;;;14.53;;
1136;SDS011;557;48.466;7.950;2024-03-22T13:43:26;15.50;;;14.70;;
1136;SDS011;557;48.466;7.950;2024-03-22T13:45:52;15.60;;;14.80;;
1136;SDS011;557;48.466;7.950;2024-03-22T13:48:20;15.40;;;14.50;;
1136;SDS011;557;48.466;7.950;2024-03-22T13:50:50;15.50;;;14.60;;
1136;SDS011;557;48.466;7.950;2024-03-22T13:53:17;16.27;;;14.90;;
1136;SDS011;557;48.466;7.950;2024-03-22T13:55:44;15.80;;;15.00;;
1136;SDS011;557;48.466;7.950;2024-03-22T13:58:11;15.93;;;15.23;;
1136;SDS011;557;48.466;7.950;2024-03-22T14:00:37;15.47;;;14.77;;
1136;SDS011;557;48.466;7.950;2024-03-22T14:03:05;15.83;;;14.93;;
1136;SDS011;557;48.466;7.950;2024-03-22T14:05:31;15.80;;;15.10;;
1136;SDS011;557;48.466;7.950;2024-03-22T14:07:59;16.10;;;15.30;;
1136;SDS011;557;48.466;7.950;2024-03-22T14:10:25;15.70;;;14.97;;
1136;SDS011;557;48.466;7.950;2024-03-22T14:12:54;15.90;;;15.07;;
1136;SDS011;557;48.466;7.950;2024-03-22T14:15:20;16.13;;;15.33;;
1136;SDS011;557;48.466;7.950;2024-03-22T14:17:49;16.70;;;15.80;;
1136;SDS011;557;48.466;7.950;2024-03-22T14:20:15;15.90;;;15.10;;
1136;SDS011;557;48.466;7.950;2024-03-22T14:22:42;16.00;;;15.30;;
1136;SDS011;557;48.466;7.950;2024-03-22T14:25:09;15.73;;;14.83;;
1136;SDS011;557;48.466;7.950;2024-03-22T14:27:36;15.57;;;14.70;;
1136;SDS011;557;48.466;7.950;2024-03-22T14:30:04;15.33;;;14.63;;
1136;SDS011;557;48.466;7.950;2024-03-22T14:32:33;14.93;;;14.13;;
1136;SDS011;557;48.466;7.950;2024-03-22T14:34:59;15.47;;;14.63;;
1136;SDS011;557;48.466;7.950;2024-03-22T14:37:26;16.00;;;15.17;;
1136;SDS011;557;48.466;7.950;2024-03-22T14:39:52;15.67;;;14.77;;
1136;SDS011;557;48.466;7.950;2024-03-22T14:42:20;16.27;;;15.40;;
1136;SDS011;557;48.466;7.950;2024-03-22T14:44:46;15.30;;;14.50;;
1136;SDS011;557;48.466;7.950;2024-03-22T14:47:13;15.90;;;14.97;;
1136;SDS011;557;48.466;7.950;2024-03-22T14:49:42;16.20;;;15.30;;
1136;SDS011;557;48.466;7.950;2024-03-22T14:52:09;16.17;;;15.20;;
1136;SDS011;557;48.466;7.950;2024-03-22T14:54:35;15.50;;;14.73;;
1136;SDS011;557;48.466;7.950;2024-03-22T14:57:02;15.27;;;14.47;;
1136;SDS011;557;48.466;7.950;2024-03-22T14:59:29;15.53;;;14.53;;
1136;SDS011;557;48.466;7.950;2024-03-22T15:01:56;15.37;;;14.53;;
1136;SDS011;557;48.466;7.950;2024-03-22T15:04:22;15.43;;;14.40;;
1136;SDS011;557;48.466;7.950;2024-03-22T15:06:49;15.40;;;14.60;;
1136;SDS011;557;48.466;7.950;2024-03-22T15:09:16;15.90;;;14.93;;
1136;SDS011;557;48.466;7.950;2024-03-22T15:11:43;15.33;;;14.53;;
1136;SDS011;557;48.466;7.950;2024-03-22T15:14:09;16.03;;;15.07;;